Homesville, Pennsylvania
Current Conditions -  °F | °C
As of 9:00 AM on Monday 22 Dec 2014 (Local Time) from KHZL Reporting Station
Overcast Overcast  
Wind Chill: 23°   Ceiling: 800
Heat Index: 30°   Visibility: 10mi
Dew Point: 28°   Wind: 8mph
Humidity: 93%   Direction: 120°ESE
Pressure: 30.25"   Gusts: NA
Location:  40.7564°N, 76.3531°W
Report Text: KHZL 221400Z AUTO 12007KT 10SM OVC008 M01/M02 A3025 RMK AO2
Loading
Personal Weather Stations






























Interactive Weather Map New forecast layout! Learn more

10-Day Weather Forecast

Advertisements
Track Severe Weather on mobile